Time;durP1;ratioP1;P1;durP2;ratioP2;P2;SDS_P1;SDS_P2;PMS_P1;PMS_P2;Temp;Humidity;BMP_temperature;BMP_pressure;BME280_temperature;BME280_humidity;BME280_pressure;Samples;Min_cycle;Max_cycle;Signal;HPM_P1;HPM_P2
2021/12/13 00:00:23;;;;;;;32.72;15.20;;;29.20;79.40;;;;;;5080404;28;20371;-49
2021/12/13 00:03:26;;;;;;;32.58;11.48;;;29.10;78.70;;;;;;5080322;28;20032;-50
2021/12/13 00:05:59;;;;;;;25.85;8.93;;;29.10;78.50;;;;;;5076977;28;20324;-51
2021/12/13 00:08:39;;;;;;;15.50;7.82;;;29.10;78.60;;;;;;5083633;28;20161;-47
2021/12/13 00:11:24;;;;;;;35.45;7.63;;;29.10;78.40;;;;;;5083669;28;20143;-56
2021/12/13 00:14:13;;;;;;;17.27;6.28;;;29.00;78.50;;;;;;5074835;28;20012;-48
2021/12/13 00:16:50;;;;;;;13.10;7.18;;;29.00;78.20;;;;;;5078974;28;20029;-49
2021/12/13 00:19:23;;;;;;;16.08;6.15;;;29.00;78.20;;;;;;5078775;28;20021;-46
2021/12/13 00:21:58;;;;;;;12.70;6.45;;;29.00;78.20;;;;;;5084214;28;20027;-50
2021/12/13 00:24:31;;;;;;;15.52;6.47;;;29.00;78.20;;;;;;5082201;28;20013;-48
2021/12/13 00:27:11;;;;;;;20.25;6.63;;;28.90;78.00;;;;;;5078546;28;20189;-50
2021/12/13 00:29:59;;;;;;;17.88;6.78;;;28.90;78.10;;;;;;5078057;28;20205;-49
2021/12/13 00:32:52;;;;;;;13.85;6.45;;;28.90;78.20;;;;;;5077071;28;20252;-49
2021/12/13 00:35:28;;;;;;;15.23;6.93;;;28.80;77.90;;;;;;5071234;28;20263;-52
2021/12/13 00:38:04;;;;;;;11.95;6.28;;;28.90;78.00;;;;;;5067569;28;20039;-51
2021/12/13 00:40:35;;;;;;;12.82;6.05;;;28.90;77.70;;;;;;5067489;28;20051;-50
2021/12/13 00:43:19;;;;;;;10.95;6.10;;;28.90;77.80;;;;;;5067551;28;20080;-51
2021/12/13 00:46:02;;;;;;;14.25;6.35;;;28.90;77.80;;;;;;5067453;28;20040;-50
2021/12/13 00:48:32;;;;;;;13.57;5.90;;;28.90;77.60;;;;;;5071503;28;20433;-51
2021/12/13 00:51:11;;;;;;;10.93;5.80;;;28.90;77.60;;;;;;5075359;28;20037;-50
2021/12/13 00:53:51;;;;;;;9.95;5.45;;;28.90;77.40;;;;;;5067626;28;20056;-48
2021/12/13 00:56:56;;;;;;;17.35;5.30;;;28.90;77.10;;;;;;5067123;28;20048;-51
2021/12/13 00:59:40;;;;;;;11.40;5.20;;;28.90;77.10;;;;;;5066940;28;20029;-53
2021/12/13 01:02:18;;;;;;;11.23;5.25;;;28.90;77.10;;;;;;5067094;28;20070;-52
2021/12/13 01:05:03;;;;;;;10.38;5.55;;;28.90;77.10;;;;;;5074899;28;20210;-50
2021/12/13 01:08:06;;;;;;;12.45;5.75;;;28.90;76.90;;;;;;5074669;28;20017;-51
2021/12/13 01:10:57;;;;;;;11.20;5.43;;;28.90;77.00;;;;;;5066658;28;20027;-53
2021/12/13 01:13:33;;;;;;;10.02;5.47;;;28.90;76.80;;;;;;5066900;28;20078;-52
2021/12/13 01:16:16;;;;;;;11.77;5.60;;;28.90;76.90;;;;;;5066691;28;20024;-50
2021/12/13 01:19:01;;;;;;;13.00;5.20;;;28.90;76.90;;;;;;5065626;28;20029;-49
2021/12/13 01:21:56;;;;;;;10.80;5.53;;;28.90;77.00;;;;;;5066579;28;20025;-49
2021/12/13 01:27:11;;;;;;;12.77;5.60;;;28.90;76.70;;;;;;5066868;28;20336;-50
2021/12/13 01:29:38;;;;;;;14.00;5.80;;;28.80;76.60;;;;;;5072471;28;20019;-54
2021/12/13 01:32:11;;;;;;;9.88;5.20;;;28.90;76.60;;;;;;5077013;28;20032;-55
2021/12/13 01:34:38;;;;;;;14.75;5.70;;;28.80;76.40;;;;;;5074904;28;20009;-52
2021/12/13 01:37:15;;;;;;;14.32;5.63;;;28.90;76.60;;;;;;5075167;28;20021;-53
2021/12/13 01:39:46;;;;;;;14.63;5.80;;;28.90;76.50;;;;;;5069121;28;20044;-51
2021/12/13 01:42:35;;;;;;;14.68;5.90;;;28.80;76.30;;;;;;5065492;28;20043;-52
2021/12/13 01:45:10;;;;;;;14.35;5.72;;;28.80;76.20;;;;;;5082716;28;20028;-50
2021/12/13 01:47:46;;;;;;;25.05;6.55;;;28.80;76.20;;;;;;5073442;28;20333;-54
2021/12/13 01:50:16;;;;;;;17.83;6.93;;;28.80;75.90;;;;;;5066070;28;20099;-50
2021/12/13 01:52:45;;;;;;;18.27;6.97;;;28.80;75.80;;;;;;5066706;28;20049;-53
2021/12/13 01:55:23;;;;;;;19.67;7.70;;;28.80;75.80;;;;;;5066407;28;20027;-54
2021/12/13 01:58:20;;;;;;;18.55;7.25;;;28.80;75.70;;;;;;5066657;28;20028;-58
2021/12/13 02:03:57;;;;;;;12.85;6.10;;;28.80;75.60;;;;;;5066166;28;20356;-51
2021/12/13 02:06:42;;;;;;;14.02;7.22;;;28.80;75.50;;;;;;5065826;28;20063;-56
2021/12/13 02:09:20;;;;;;;20.20;7.72;;;28.70;75.40;;;;;;5065841;28;20052;-53
2021/12/13 02:11:51;;;;;;;15.90;6.95;;;28.70;75.30;;;;;;5065960;28;20021;-57
2021/12/13 02:14:21;;;;;;;15.05;6.50;;;28.70;75.20;;;;;;5065132;28;20021;-52
2021/12/13 02:16:57;;;;;;;18.23;6.72;;;28.70;75.20;;;;;;5065893;28;20032;-54
2021/12/13 02:19:45;;;;;;;13.63;5.57;;;28.70;75.20;;;;;;5068153;28;20021;-54
2021/12/13 02:22:43;;;;;;;11.07;5.47;;;28.70;75.10;;;;;;5070862;28;20330;-55
2021/12/13 02:25:16;;;;;;;13.43;6.22;;;28.70;75.00;;;;;;5065853;28;20021;-49
2021/12/13 02:27:49;;;;;;;10.07;4.93;;;28.60;74.90;;;;;;5066031;28;20024;-51
2021/12/13 02:30:54;;;;;;;9.90;4.50;;;28.60;74.80;;;;;;5066579;28;20036;-52
2021/12/13 02:33:37;;;;;;;16.70;5.30;;;28.60;74.60;;;;;;5076119;28;20064;-50
2021/12/13 02:36:10;;;;;;;15.60;4.63;;;28.60;74.50;;;;;;5085486;28;20025;-51
2021/12/13 02:38:40;;;;;;;16.10;5.22;;;28.60;74.40;;;;;;5085413;28;20017;-50
2021/12/13 02:41:08;;;;;;;10.63;4.47;;;28.60;74.30;;;;;;5085233;28;20024;-47
2021/12/13 02:43:40;;;;;;;8.10;4.53;;;28.60;74.20;;;;;;5085209;28;20039;-50
2021/12/13 02:46:07;;;;;;;;;;;28.60;74.10;;;;;;5085925;28;20052;-52
2021/12/13 02:49:05;;;;;;;7.65;4.75;;;28.60;74.10;;;;;;5084518;28;19904;-55
2021/12/13 02:51:38;;;;;;;9.52;4.45;;;28.50;73.90;;;;;;5062205;28;20048;-54
2021/12/13 02:54:24;;;;;;;9.82;4.75;;;28.50;73.90;;;;;;5077801;28;20017;-51
2021/12/13 02:57:01;;;;;;;13.60;4.15;;;28.50;73.50;;;;;;5080914;28;20190;-53
2021/12/13 02:59:33;;;;;;;8.55;3.88;;;28.50;73.50;;;;;;5064785;28;20087;-55
2021/12/13 03:02:18;;;;;;;8.30;4.47;;;28.50;73.40;;;;;;5073691;28;20024;-50
2021/12/13 03:04:47;;;;;;;8.98;3.90;;;28.50;73.40;;;;;;5082391;28;20028;-52
2021/12/13 03:07:31;;;;;;;6.90;4.28;;;28.50;73.30;;;;;;5084422;28;20024;-50
2021/12/13 03:10:00;;;;;;;32.55;4.93;;;28.40;73.20;;;;;;5083686;28;20062;-51
2021/12/13 03:12:28;;;;;;;12.35;4.38;;;28.40;73.00;;;;;;5083561;28;20307;-50
2021/12/13 03:15:00;;;;;;;8.18;4.28;;;28.40;73.10;;;;;;5084479;28;20081;-52
2021/12/13 03:17:54;;;;;;;11.68;4.78;;;28.40;72.80;;;;;;5078613;28;20020;-49
2021/12/13 03:20:55;;;;;;;9.65;4.03;;;28.40;72.40;;;;;;5054593;28;20039;-51
2021/12/13 03:23:30;;;;;;;8.80;4.30;;;28.40;72.40;;;;;;5063326;28;20226;-52
2021/12/13 03:26:03;;;;;;;7.85;3.90;;;28.40;72.40;;;;;;5070998;28;20032;-50
2021/12/13 03:28:48;;;;;;;8.38;3.90;;;28.40;72.50;;;;;;5084267;28;20020;-49
2021/12/13 03:31:27;;;;;;;8.68;3.83;;;28.30;71.90;;;;;;5084399;28;20265;-50
2021/12/13 03:34:04;;;;;;;5.68;3.88;;;28.30;71.60;;;;;;5084050;28;20051;-54
2021/12/13 03:36:52;;;;;;;10.52;4.00;;;28.30;71.50;;;;;;5082363;28;20083;-50
2021/12/13 03:39:34;;;;;;;7.15;3.63;;;28.30;71.10;;;;;;5084319;28;20328;-52
2021/12/13 03:42:02;;;;;;;;;;;28.30;70.90;;;;;;5084616;28;20035;-57
2021/12/13 03:44:48;;;;;;;12.10;3.90;;;28.30;71.00;;;;;;5084045;28;19912;-50
2021/12/13 03:47:23;;;;;;;5.68;3.90;;;28.20;71.00;;;;;;5084386;28;20209;-56
2021/12/13 03:49:57;;;;;;;7.32;4.10;;;28.20;70.80;;;;;;5083925;28;20383;-51
2021/12/13 03:52:32;;;;;;;6.50;4.35;;;28.20;70.80;;;;;;5083949;28;20116;-49
2021/12/13 03:55:03;;;;;;;8.85;4.22;;;28.20;70.90;;;;;;5083624;28;20104;-56
2021/12/13 03:57:31;;;;;;;13.93;5.10;;;28.20;71.00;;;;;;5084494;28;20238;-49
2021/12/13 03:59:59;;;;;;;12.63;5.18;;;28.20;71.20;;;;;;5084320;28;20284;-54
2021/12/13 04:02:34;;;;;;;12.80;5.28;;;28.20;71.30;;;;;;5084264;28;20213;-50
2021/12/13 04:05:16;;;;;;;8.57;5.45;;;28.10;71.50;;;;;;5084416;28;20031;-59
2021/12/13 04:07:49;;;;;;;12.43;5.35;;;28.20;71.80;;;;;;5084612;28;20456;-49
2021/12/13 04:10:26;;;;;;;21.77;9.15;;;28.10;71.90;;;;;;5084044;28;20037;-51
2021/12/13 04:12:57;;;;;;;26.35;12.65;;;28.10;72.20;;;;;;5084353;28;20108;-50
2021/12/13 04:19:06;;;;;;;42.10;20.15;;;28.10;72.80;;;;;;5084309;28;20044;-54
2021/12/13 04:21:57;;;;;;;36.63;19.50;;;28.00;73.10;;;;;;5084362;28;20035;-54
2021/12/13 04:24:45;;;;;;;40.92;21.27;;;28.00;73.70;;;;;;5083470;28;20029;-53
2021/12/13 04:27:48;;;;;;;34.58;17.15;;;28.00;74.30;;;;;;5083617;28;20021;-49
2021/12/13 04:30:36;;;;;;;34.05;16.02;;;28.00;74.60;;;;;;5074615;28;20363;-48
2021/12/13 04:33:10;;;;;;;26.88;13.65;;;28.00;74.90;;;;;;5083302;28;20029;-48
2021/12/13 04:35:37;;;;;;;21.83;13.00;;;27.90;75.10;;;;;;5083537;28;20028;-49
2021/12/13 04:38:07;;;;;;;24.40;11.95;;;27.90;75.30;;;;;;5083625;28;20249;-50
2021/12/13 04:40:38;;;;;;;21.92;11.85;;;27.90;75.70;;;;;;5083429;28;20062;-53
2021/12/13 04:43:09;;;;;;;24.58;12.27;;;27.90;76.00;;;;;;5083615;28;20020;-57
2021/12/13 04:45:41;;;;;;;14.90;10.60;;;27.90;76.20;;;;;;5083620;28;20079;-50
2021/12/13 04:48:14;;;;;;;19.73;10.77;;;27.90;76.50;;;;;;5083623;28;20271;-50
2021/12/13 04:50:58;;;;;;;16.75;10.00;;;27.90;76.90;;;;;;5082975;28;20352;-53
2021/12/13 04:53:33;;;;;;;22.45;15.48;;;27.80;77.00;;;;;;5083321;28;20070;-52
2021/12/13 04:56:04;;;;;;;58.65;43.00;;;27.80;77.10;;;;;;5083255;28;20205;-50
2021/12/13 04:58:31;;;;;;;48.55;39.08;;;27.80;77.50;;;;;;5083670;28;20233;-51
2021/12/13 05:01:04;;;;;;;38.67;30.40;;;27.80;77.70;;;;;;5083203;28;20332;-53
2021/12/13 05:03:35;;;;;;;29.38;22.77;;;27.80;78.00;;;;;;5083656;28;20070;-50
2021/12/13 05:06:14;;;;;;;31.20;25.97;;;27.80;78.20;;;;;;5084084;28;20066;-53
2021/12/13 05:08:46;;;;;;;31.23;23.48;;;27.80;78.40;;;;;;5087218;28;20319;-49
2021/12/13 05:11:13;;;;;;;26.77;21.00;;;27.70;78.40;;;;;;5086605;28;20329;-50
2021/12/13 05:13:50;;;;;;;23.27;18.52;;;27.70;78.70;;;;;;5087006;28;20096;-51
2021/12/13 05:16:32;;;;;;;18.63;13.75;;;27.70;78.90;;;;;;5086698;28;20027;-51
2021/12/13 05:18:58;;;;;;;18.60;12.60;;;27.70;79.10;;;;;;5086407;28;20313;-50
2021/12/13 05:21:42;;;;;;;18.60;11.82;;;27.70;79.10;;;;;;5086568;28;20070;-50
2021/12/13 05:24:22;;;;;;;16.52;10.25;;;27.70;79.00;;;;;;5086376;28;20035;-51
2021/12/13 05:26:57;;;;;;;15.63;8.70;;;27.70;78.70;;;;;;5086355;28;20055;-51
2021/12/13 05:29:30;;;;;;;14.57;8.60;;;27.60;78.60;;;;;;5086287;28;20330;-52
2021/12/13 05:32:06;;;;;;;10.02;6.57;;;27.60;78.50;;;;;;5086347;28;20028;-51
2021/12/13 05:34:37;;;;;;;8.82;6.15;;;27.60;78.30;;;;;;5086270;28;20309;-52
2021/12/13 05:37:06;;;;;;;9.60;5.80;;;27.60;78.00;;;;;;5086325;28;20301;-51
2021/12/13 05:39:35;;;;;;;10.43;5.90;;;27.60;77.80;;;;;;5086150;28;20103;-51
2021/12/13 05:42:05;;;;;;;8.90;4.90;;;27.50;78.00;;;;;;5086030;28;20024;-52
2021/12/13 05:44:37;;;;;;;8.10;5.22;;;27.50;78.10;;;;;;5086309;28;20021;-56
2021/12/13 05:47:08;;;;;;;9.88;4.80;;;27.50;78.00;;;;;;5086157;28;20028;-53
2021/12/13 05:49:42;;;;;;;8.63;4.80;;;27.50;78.00;;;;;;5085647;28;20035;-51
2021/12/13 05:52:13;;;;;;;9.60;5.13;;;27.50;78.00;;;;;;5085859;28;20043;-54
2021/12/13 05:54:46;;;;;;;7.25;4.85;;;27.50;77.90;;;;;;5085723;28;20013;-52
2021/12/13 05:57:30;;;;;;;10.10;4.97;;;27.40;77.90;;;;;;5086007;28;20301;-51
2021/12/13 05:59:56;;;;;;;11.85;5.22;;;27.40;77.90;;;;;;5085677;28;20024;-51
2021/12/13 06:02:57;;;;;;;8.20;4.82;;;27.40;78.20;;;;;;5085860;28;20028;-51
2021/12/13 06:05:37;;;;;;;17.65;5.47;;;27.40;78.30;;;;;;5085534;28;20021;-52
2021/12/13 06:08:15;;;;;;;9.65;4.95;;;27.40;78.10;;;;;;5085948;28;20039;-50
2021/12/13 06:10:48;;;;;;;10.60;4.68;;;27.40;78.20;;;;;;5084837;28;20016;-51
2021/12/13 06:13:43;;;;;;;10.23;4.82;;;27.40;78.20;;;;;;5086018;28;20017;-53
2021/12/13 06:16:34;;;;;;;8.23;5.00;;;27.40;78.40;;;;;;5085354;28;20084;-52
2021/12/13 06:19:28;;;;;;;8.85;4.80;;;27.40;78.60;;;;;;5085261;28;20028;-50
2021/12/13 06:22:11;;;;;;;11.15;5.10;;;27.40;78.50;;;;;;5085358;28;20025;-57
2021/12/13 06:25:00;;;;;;;9.95;5.22;;;27.30;78.40;;;;;;5085294;28;20024;-50
2021/12/13 06:27:40;;;;;;;9.75;5.65;;;27.30;78.60;;;;;;5085287;28;20051;-57
2021/12/13 06:30:12;;;;;;;8.65;5.40;;;27.30;78.70;;;;;;5085247;28;20028;-51
2021/12/13 06:32:49;;;;;;;10.73;5.25;;;27.30;78.80;;;;;;5085179;28;20029;-51
2021/12/13 06:35:32;;;;;;;8.70;5.15;;;27.30;78.90;;;;;;5085047;28;20028;-57
2021/12/13 06:38:20;;;;;;;11.07;5.45;;;27.30;79.20;;;;;;5085166;28;20046;-51
2021/12/13 06:41:01;;;;;;;10.52;5.20;;;27.30;79.40;;;;;;5084964;28;20028;-51
2021/12/13 06:43:38;;;;;;;9.43;5.10;;;27.30;79.60;;;;;;5085424;28;20020;-50
2021/12/13 06:46:28;;;;;;;11.48;5.63;;;27.30;79.50;;;;;;5084794;28;20029;-51
2021/12/13 06:49:00;;;;;;;13.95;5.63;;;27.30;79.80;;;;;;5084582;28;20036;-53
2021/12/13 06:51:56;;;;;;;15.82;5.30;;;27.30;80.00;;;;;;5084687;28;20021;-51
2021/12/13 06:54:27;;;;;;;17.65;6.32;;;27.20;80.40;;;;;;5084683;28;20336;-51
2021/12/13 06:57:02;;;;;;;15.25;5.57;;;27.30;80.40;;;;;;5084536;28;20286;-51
2021/12/13 06:59:32;;;;;;;13.10;6.00;;;27.30;80.40;;;;;;5084728;28;20034;-51
2021/12/13 07:02:23;;;;;;;17.85;6.25;;;27.30;80.60;;;;;;5084602;28;20327;-51
2021/12/13 07:04:57;;;;;;;14.63;6.30;;;27.20;80.90;;;;;;5084887;28;20024;-51
2021/12/13 07:07:30;;;;;;;12.98;6.40;;;27.20;80.90;;;;;;5084481;28;20074;-52
2021/12/13 07:10:01;;;;;;;12.93;6.53;;;27.20;80.90;;;;;;5084367;28;20198;-51
2021/12/13 07:12:31;;;;;;;11.95;5.80;;;27.20;81.00;;;;;;5084551;28;20041;-51
2021/12/13 07:14:59;;;;;;;11.00;4.90;;;27.20;81.00;;;;;;5084961;28;20097;-51
2021/12/13 07:17:34;;;;;;;11.35;5.35;;;27.20;81.00;;;;;;5084612;28;20024;-51
2021/12/13 07:20:15;;;;;;;8.23;5.05;;;27.20;81.00;;;;;;5083343;28;20024;-51
2021/12/13 07:22:43;;;;;;;10.93;4.95;;;27.20;81.00;;;;;;5084503;28;20024;-53
2021/12/13 07:25:17;;;;;;;8.32;5.20;;;27.20;80.90;;;;;;5084147;28;20054;-54
2021/12/13 07:27:49;;;;;;;8.60;5.10;;;27.20;81.00;;;;;;5084390;28;20029;-54
2021/12/13 07:30:28;;;;;;;5.82;4.63;;;27.20;80.90;;;;;;5083808;28;20028;-56
2021/12/13 07:32:59;;;;;;;8.18;4.90;;;27.20;80.90;;;;;;5084367;28;20039;-53
2021/12/13 07:35:44;;;;;;;9.40;4.70;;;27.20;80.70;;;;;;5084103;28;20062;-54
2021/12/13 07:38:26;;;;;;;8.35;4.78;;;27.20;80.70;;;;;;5084456;28;20085;-54
2021/12/13 07:41:04;;;;;;;8.98;5.07;;;27.20;80.50;;;;;;5084349;28;20035;-56
2021/12/13 07:43:40;;;;;;;8.45;4.93;;;27.20;80.60;;;;;;5084427;28;20029;-56
2021/12/13 07:46:18;;;;;;;9.35;4.57;;;27.20;80.70;;;;;;5083981;28;20224;-56
2021/12/13 07:48:44;;;;;;;10.45;4.80;;;27.20;80.60;;;;;;5084150;28;20035;-56
2021/12/13 07:51:28;;;;;;;7.50;4.60;;;27.20;81.00;;;;;;5083793;28;20036;-56
2021/12/13 07:54:09;;;;;;;7.97;4.65;;;27.20;80.50;;;;;;5083927;28;20024;-56
2021/12/13 07:56:36;;;;;;;8.80;4.82;;;27.10;80.50;;;;;;5083899;28;20028;-55
2021/12/13 07:59:37;;;;;;;7.57;4.75;;;27.10;80.40;;;;;;5083719;28;20109;-48
2021/12/13 08:02:19;;;;;;;7.45;4.80;;;27.10;80.60;;;;;;5083729;28;20027;-48
2021/12/13 08:04:58;;;;;;;6.55;4.63;;;27.10;80.60;;;;;;5083893;28;20020;-46
2021/12/13 08:07:29;;;;;;;7.00;4.53;;;27.10;80.60;;;;;;5083760;28;20036;-53
2021/12/13 08:10:08;;;;;;;11.30;5.00;;;27.10;80.70;;;;;;5083761;28;20024;-47
2021/12/13 08:12:39;;;;;;;11.50;4.80;;;27.10;80.80;;;;;;5083771;28;20021;-44
2021/12/13 08:15:15;;;;;;;7.75;4.53;;;27.10;80.70;;;;;;5083876;28;20075;-49
2021/12/13 08:18:20;;;;;;;11.15;5.07;;;27.10;80.70;;;;;;5083960;28;20021;-50
2021/12/13 08:20:54;;;;;;;6.72;4.28;;;27.10;80.70;;;;;;5083624;28;20021;-51
2021/12/13 08:23:28;;;;;;;9.40;4.75;;;27.00;80.60;;;;;;5083896;28;20332;-50
2021/12/13 08:26:00;;;;;;;8.85;4.93;;;27.00;80.50;;;;;;5083517;28;20343;-52
2021/12/13 08:28:35;;;;;;;9.52;4.15;;;27.00;80.40;;;;;;5083843;28;20036;-50
2021/12/13 08:31:06;;;;;;;6.80;4.72;;;27.00;80.10;;;;;;5083458;28;20335;-52
2021/12/13 08:33:38;;;;;;;10.20;4.55;;;27.00;80.00;;;;;;5083962;28;20051;-51
2021/12/13 08:36:04;;;;;;;;;;;27.00;80.00;;;;;;5084199;28;20016;-51
2021/12/13 08:38:42;;;;;;;5.55;4.15;;;27.00;79.80;;;;;;5083806;28;19908;-50
2021/12/13 08:41:15;;;;;;;9.73;4.60;;;26.90;79.70;;;;;;5085921;28;20030;-52
2021/12/13 08:43:44;;;;;;;7.22;4.90;;;26.90;79.70;;;;;;5087718;28;20031;-50
2021/12/13 08:46:13;;;;;;;8.13;5.07;;;26.90;79.60;;;;;;5087201;28;20044;-53
2021/12/13 08:49:00;;;;;;;10.63;4.88;;;26.90;79.40;;;;;;5087284;28;20036;-53
2021/12/13 08:51:30;;;;;;;10.35;4.72;;;26.90;79.20;;;;;;5086967;28;20213;-52
2021/12/13 08:54:09;;;;;;;6.55;4.72;;;26.90;79.00;;;;;;5087005;28;20277;-50
2021/12/13 08:56:46;;;;;;;10.75;5.18;;;26.90;78.70;;;;;;5086939;28;20013;-49
2021/12/13 08:59:26;;;;;;;6.82;4.80;;;26.90;78.50;;;;;;5086943;28;20016;-46
2021/12/13 09:02:07;;;;;;;10.45;5.57;;;26.90;78.30;;;;;;5087174;28;20201;-45
2021/12/13 09:04:41;;;;;;;11.00;5.20;;;26.90;78.10;;;;;;5086815;28;20016;-51
2021/12/13 09:07:12;;;;;;;8.48;5.60;;;26.90;78.10;;;;;;5086854;28;20032;-50
2021/12/13 09:09:46;;;;;;;10.65;5.43;;;26.90;78.00;;;;;;5086850;28;20020;-50
2021/12/13 09:12:25;;;;;;;9.20;5.22;;;26.90;77.90;;;;;;5086768;28;20302;-50
2021/12/13 09:14:55;;;;;;;8.70;5.50;;;26.90;77.90;;;;;;5086837;28;20032;-45
2021/12/13 09:17:31;;;;;;;8.40;5.63;;;26.90;77.90;;;;;;5086732;28;20051;-51
2021/12/13 09:20:01;;;;;;;11.00;5.60;;;26.90;77.90;;;;;;5086451;28;20035;-52
2021/12/13 09:22:45;;;;;;;9.02;5.55;;;26.90;77.70;;;;;;5086823;28;20028;-52
2021/12/13 09:25:32;;;;;;;10.93;5.70;;;26.90;77.70;;;;;;5086302;28;20217;-51
2021/12/13 09:28:10;;;;;;;8.38;6.20;;;26.80;77.80;;;;;;5086587;28;20024;-53
2021/12/13 09:30:43;;;;;;;9.40;6.20;;;26.90;77.80;;;;;;5082476;28;20020;-52
2021/12/13 09:33:34;;;;;;;11.10;5.95;;;26.80;77.60;;;;;;5086749;28;20088;-50
2021/12/13 09:36:17;;;;;;;8.70;5.82;;;26.80;77.70;;;;;;5086534;28;20036;-50
2021/12/13 09:38:55;;;;;;;11.05;6.25;;;26.80;77.60;;;;;;5086696;28;20095;-50
2021/12/13 09:41:42;;;;;;;9.43;6.10;;;26.80;77.60;;;;;;5086163;28;20055;-45
2021/12/13 09:44:09;;;;;;;9.45;6.32;;;26.80;77.40;;;;;;5085990;28;20029;-45
2021/12/13 09:46:44;;;;;;;8.20;6.03;;;26.80;77.30;;;;;;5086136;28;20058;-47
2021/12/13 09:49:19;;;;;;;10.43;6.53;;;26.80;77.20;;;;;;5085988;28;20340;-44
2021/12/13 09:52:04;;;;;;;10.98;6.93;;;26.80;77.10;;;;;;5084960;28;20032;-50
2021/12/13 09:54:37;;;;;;;9.93;5.82;;;26.80;77.10;;;;;;5086027;28;20092;-50
2021/12/13 09:57:10;;;;;;;8.23;6.93;;;26.80;77.20;;;;;;5085904;28;20025;-50
2021/12/13 09:59:41;;;;;;;10.65;6.68;;;26.80;77.20;;;;;;5085906;28;20016;-50
2021/12/13 10:02:21;;;;;;;7.43;6.28;;;26.80;77.30;;;;;;5085741;28;20021;-55
2021/12/13 10:04:49;;;;;;;8.90;6.60;;;26.80;77.30;;;;;;5085704;28;20021;-53
2021/12/13 10:07:21;;;;;;;11.45;6.88;;;26.70;77.30;;;;;;5085649;28;20017;-56
2021/12/13 10:09:57;;;;;;;9.65;6.63;;;26.70;77.50;;;;;;5085689;28;20031;-52
2021/12/13 10:12:55;;;;;;;8.52;6.40;;;26.70;77.50;;;;;;5085676;28;20043;-53
2021/12/13 10:15:35;;;;;;;11.50;6.90;;;26.70;77.50;;;;;;5080838;28;20025;-50
2021/12/13 10:18:09;;;;;;;10.43;6.50;;;26.70;77.40;;;;;;5085580;28;20027;-50
2021/12/13 10:20:40;;;;;;;10.40;6.57;;;26.70;77.30;;;;;;5085403;28;20169;-51
2021/12/13 10:23:10;;;;;;;11.65;6.18;;;26.70;77.10;;;;;;5085516;28;20024;-50
2021/12/13 10:25:41;;;;;;;12.27;6.05;;;26.60;77.00;;;;;;5085349;28;20321;-50
2021/12/13 10:28:12;;;;;;;8.07;6.45;;;26.60;77.00;;;;;;5085570;28;20024;-53
2021/12/13 10:30:53;;;;;;;10.43;5.90;;;26.60;76.90;;;;;;5084991;28;20020;-52
2021/12/13 10:33:22;;;;;;;8.32;5.93;;;26.70;77.00;;;;;;5085581;28;20095;-55
2021/12/13 10:35:52;;;;;;;7.57;5.43;;;26.60;76.70;;;;;;5084925;28;20020;-49
2021/12/13 10:38:27;;;;;;;8.05;5.30;;;26.60;76.60;;;;;;5085531;28;20043;-47
2021/12/13 10:41:11;;;;;;;9.32;5.60;;;26.60;76.50;;;;;;5084980;28;20051;-49
2021/12/13 10:43:50;;;;;;;7.53;5.60;;;26.60;76.40;;;;;;5085359;28;20028;-51
2021/12/13 10:46:30;;;;;;;7.32;5.20;;;26.60;76.40;;;;;;5084731;28;20024;-50
2021/12/13 10:49:01;;;;;;;7.32;5.13;;;26.60;76.50;;;;;;5084556;28;20040;-49
2021/12/13 10:51:36;;;;;;;9.73;5.65;;;26.60;76.40;;;;;;5084456;28;20028;-55
2021/12/13 10:54:10;;;;;;;8.15;5.03;;;26.60;76.40;;;;;;5084691;28;20032;-51
2021/12/13 10:56:50;;;;;;;11.23;5.93;;;26.60;76.20;;;;;;5084680;28;20023;-57
2021/12/13 10:59:21;;;;;;;9.48;5.80;;;26.60;76.40;;;;;;5084165;28;20252;-47
2021/12/13 11:01:52;;;;;;;9.23;5.53;;;26.60;76.70;;;;;;5072912;28;20047;-55
2021/12/13 11:04:27;;;;;;;14.17;6.23;;;26.60;76.60;;;;;;5064422;28;20029;-50
2021/12/13 11:06:54;;;;;;;16.23;6.47;;;26.60;76.60;;;;;;5083650;28;20270;-51
2021/12/13 11:09:25;;;;;;;12.02;6.90;;;26.60;76.80;;;;;;5084395;28;20017;-52
2021/12/13 11:11:57;;;;;;;14.98;6.50;;;26.60;77.20;;;;;;5084360;28;20032;-52
2021/12/13 11:14:26;;;;;;;12.52;6.25;;;26.60;77.20;;;;;;5084606;28;20016;-50
2021/12/13 11:16:56;;;;;;;16.63;7.43;;;26.60;77.30;;;;;;5084162;28;20024;-46
2021/12/13 11:19:27;;;;;;;22.13;7.35;;;26.60;78.50;;;;;;5084349;28;20027;-46
2021/12/13 11:22:01;;;;;;;12.35;7.50;;;26.60;78.20;;;;;;5084293;28;20239;-53
2021/12/13 11:24:30;;;;;;;27.70;8.48;;;26.50;78.20;;;;;;5084217;28;20293;-53
2021/12/13 11:27:03;;;;;;;42.70;9.95;;;26.50;78.70;;;;;;5084156;28;20036;-54
2021/12/13 11:29:31;;;;;;;29.60;8.82;;;26.50;78.90;;;;;;5081914;28;20217;-53
2021/12/13 11:32:32;;;;;;;46.00;10.95;;;26.50;79.00;;;;;;5084831;28;20042;-57
2021/12/13 11:35:11;;;;;;;71.25;10.85;;;26.50;79.40;;;;;;5059443;28;20032;-57
2021/12/13 11:37:57;;;;;;;52.90;10.02;;;26.50;79.50;;;;;;5082500;28;20368;-56
2021/12/13 11:40:47;;;;;;;47.70;10.57;;;26.50;79.70;;;;;;5082354;28;20021;-55
2021/12/13 11:43:52;;;;;;;69.25;11.32;;;26.60;79.80;;;;;;5082529;28;20051;-54
2021/12/13 11:46:56;;;;;;;49.30;10.25;;;26.60;80.50;;;;;;5081674;28;20020;-59
2021/12/13 11:50:07;;;;;;;43.78;9.40;;;26.60;80.90;;;;;;5083344;28;20036;-60
2021/12/13 11:52:45;;;;;;;55.72;9.75;;;26.60;81.30;;;;;;5084002;28;20055;-58
2021/12/13 11:55:42;;;;;;;82.78;13.02;;;26.60;81.40;;;;;;5082979;28;20113;-55
2021/12/13 11:58:59;;;;;;;121.40;15.75;;;26.60;81.70;;;;;;5084000;28;20017;-57
2021/12/13 12:01:46;;;;;;;179.05;20.50;;;26.60;82.20;;;;;;5066477;28;20032;-53
2021/12/13 12:05:09;;;;;;;146.88;17.33;;;26.60;82.30;;;;;;5101720;28;20352;-55
2021/12/13 12:08:32;;;;;;;78.07;12.52;;;26.60;82.70;;;;;;5042096;28;20049;-54
2021/12/13 12:11:12;;;;;;;103.90;16.60;;;26.60;82.80;;;;;;5002659;28;20052;-51
2021/12/13 12:14:10;;;;;;;196.73;24.92;;;26.60;82.90;;;;;;5021139;28;20022;-55
2021/12/13 12:16:48;;;;;;;371.73;35.70;;;26.60;83.10;;;;;;5088479;28;20027;-54
2021/12/13 12:19:24;;;;;;;336.85;33.97;;;26.70;83.20;;;;;;5106228;28;20024;-55
2021/12/13 12:22:04;;;;;;;262.35;30.17;;;26.70;83.30;;;;;;5105380;28;20123;-52
2021/12/13 12:24:34;;;;;;;171.93;25.98;;;26.70;83.30;;;;;;5106195;28;20050;-52
2021/12/13 12:27:05;;;;;;;138.45;20.98;;;26.80;83.20;;;;;;5105733;28;20027;-56
2021/12/13 12:29:38;;;;;;;129.65;18.88;;;26.80;83.30;;;;;;5105833;28;20111;-52
2021/12/13 12:32:21;;;;;;;106.95;16.65;;;26.90;83.30;;;;;;5105938;28;20023;-53
2021/12/13 12:35:14;;;;;;;93.78;16.98;;;26.90;83.40;;;;;;5105711;28;20036;-54
2021/12/13 12:38:00;;;;;;;130.23;17.60;;;26.90;83.00;;;;;;5105885;28;20027;-53
2021/12/13 12:40:28;;;;;;;111.38;17.40;;;26.90;82.90;;;;;;5105860;28;20031;-52
2021/12/13 12:43:01;;;;;;;103.53;15.52;;;27.00;82.80;;;;;;5087274;28;20229;-54
2021/12/13 12:45:50;;;;;;;86.03;14.00;;;27.00;82.90;;;;;;5087939;28;20339;-50
2021/12/13 12:48:19;;;;;;;56.22;10.48;;;27.00;82.30;;;;;;5087061;28;20021;-53
2021/12/13 12:50:54;;;;;;;55.40;10.32;;;27.10;82.20;;;;;;5087381;28;20260;-51
2021/12/13 12:53:41;;;;;;;37.53;9.95;;;27.10;82.10;;;;;;5087382;28;20016;-51
2021/12/13 12:56:16;;;;;;;39.08;10.45;;;27.10;81.90;;;;;;5086999;28;20336;-52
2021/12/13 12:58:54;;;;;;;52.58;9.77;;;27.10;81.80;;;;;;5086960;28;20310;-52
2021/12/13 13:01:40;;;;;;;43.22;9.43;;;27.20;81.70;;;;;;5087077;28;20024;-52
2021/12/13 13:04:07;;;;;;;32.08;8.27;;;27.20;81.50;;;;;;5086848;28;20335;-53
2021/12/13 13:06:33;;;;;;;26.65;8.55;;;27.20;81.40;;;;;;5086895;28;20026;-53
2021/12/13 13:09:07;;;;;;;26.50;7.90;;;27.20;81.10;;;;;;5086833;28;20035;-52
2021/12/13 13:11:35;;;;;;;29.02;8.23;;;27.30;80.90;;;;;;5086628;28;20309;-52
2021/12/13 13:14:13;;;;;;;17.85;6.97;;;27.30;80.70;;;;;;5086752;28;20276;-52
2021/12/13 13:16:44;;;;;;;25.85;7.07;;;27.30;80.30;;;;;;5086677;28;20186;-53
2021/12/13 13:19:42;;;;;;;21.98;7.22;;;27.30;79.80;;;;;;5085441;28;20028;-52
2021/12/13 13:22:16;;;;;;;12.32;6.82;;;27.30;79.50;;;;;;5086553;28;20027;-54
2021/12/13 13:24:52;;;;;;;20.17;7.20;;;27.30;79.30;;;;;;5086967;28;20044;-54
2021/12/13 13:27:22;;;;;;;22.33;7.30;;;27.40;79.10;;;;;;5085164;28;20025;-52
2021/12/13 13:29:50;;;;;;;14.95;6.15;;;27.30;78.90;;;;;;5086059;28;20032;-52
2021/12/13 13:32:17;;;;;;;14.27;6.93;;;27.40;78.90;;;;;;5084662;28;20028;-56
2021/12/13 13:34:53;;;;;;;15.48;6.28;;;27.40;78.80;;;;;;5086493;28;20028;-62
2021/12/13 13:37:32;;;;;;;13.63;6.90;;;27.40;78.80;;;;;;5086607;28;20074;-52
2021/12/13 13:40:05;;;;;;;10.55;6.63;;;27.40;78.60;;;;;;5085917;28;20209;-53
2021/12/13 13:42:47;;;;;;;12.82;5.80;;;27.40;78.60;;;;;;5086379;28;20076;-61